Time;durP1;ratioP1;P1;durP2;ratioP2;P2;SDS_P1;SDS_P2;PMS_P1;PMS_P2;Temp;Humidity;BMP_temperature;BMP_pressure;BME280_temperature;BME280_humidity;BME280_pressure;Samples;Min_cycle;Max_cycle;Signal;HPM_P1;HPM_P2
2022/10/29 11:47:42;;;;;;;6.28;2.58;;;;;;;23.47;42.16;96275.22;5111423;27;21208;-88
2022/10/29 11:50:20;;;;;;;7.53;2.83;;;;;;;23.76;42.02;96275.91;5106839;28;20198;-87
2022/10/29 11:52:54;;;;;;;8.52;3.20;;;;;;;24.11;40.98;96270.31;5109065;28;20215;-85
2022/10/29 11:55:32;;;;;;;11.18;2.80;;;;;;;24.40;41.19;96261.22;5107223;28;20698;-86
2022/10/29 11:58:03;;;;;;;13.57;2.95;;;;;;;24.58;39.90;96257.47;5106362;28;20188;-86
2022/10/29 12:00:36;;;;;;;9.30;3.28;;;;;;;24.84;40.00;96262.94;5097997;28;20256;-85
2022/10/29 12:03:35;;;;;;;11.05;2.85;;;;;;;25.03;39.61;96258.94;5110858;28;20380;-86
2022/10/29 12:06:12;;;;;;;8.10;2.80;;;;;;;25.19;39.87;96252.75;5099991;28;20184;-85
2022/10/29 12:08:52;;;;;;;11.40;3.22;;;;;;;25.33;38.07;96253.13;5119257;28;20203;-86
2022/10/29 12:11:25;;;;;;;22.38;3.70;;;;;;;25.48;39.63;96250.56;5119551;28;20191;-83
2022/10/29 12:14:01;;;;;;;6.75;2.45;;;;;;;25.60;37.49;96245.91;5108322;28;20216;-83
2022/10/29 12:16:37;;;;;;;13.35;3.70;;;;;;;25.74;37.15;96230.47;5099986;28;20215;-85
2022/10/29 12:19:16;;;;;;;12.10;3.28;;;;;;;25.91;36.39;96236.34;5109645;28;20207;-84
2022/10/29 12:21:50;;;;;;;8.02;3.05;;;;;;;26.06;36.08;96239.03;5110792;28;20192;-82
2022/10/29 12:24:28;;;;;;;7.25;3.38;;;;;;;26.12;35.23;96238.00;5106648;28;20224;-84
2022/10/29 12:27:01;;;;;;;10.52;3.55;;;;;;;26.24;35.21;96231.69;5104420;28;20215;-82
2022/10/29 12:29:43;;;;;;;10.82;3.08;;;;;;;26.33;36.43;96232.84;5109887;28;20202;-80
2022/10/29 12:32:16;;;;;;;10.50;3.03;;;;;;;26.45;35.35;96226.25;5107190;28;20231;-84
2022/10/29 12:34:50;;;;;;;8.45;2.88;;;;;;;26.58;35.08;96229.44;5113287;28;20203;-83
2022/10/29 12:37:25;;;;;;;6.95;3.15;;;;;;;26.68;35.30;96230.25;5107231;28;20226;-82
2022/10/29 12:39:59;;;;;;;8.63;3.10;;;;;;;26.76;36.53;96226.28;5110474;28;20196;-82
2022/10/29 12:42:29;;;;;;;12.20;3.28;;;;;;;26.80;36.27;96228.16;5111954;28;20191;-83
2022/10/29 12:45:06;;;;;;;10.73;3.10;;;;;;;26.87;35.88;96221.81;5117966;28;20191;-83
2022/10/29 12:47:38;;;;;;;11.13;3.10;;;;;;;26.77;35.90;96217.31;5121047;28;20203;-82
2022/10/29 12:50:22;;;;;;;8.68;2.90;;;;;;;26.89;36.16;96209.13;5120779;28;20187;-81
2022/10/29 12:52:57;;;;;;;9.82;2.75;;;;;;;26.93;34.75;96207.56;5097496;28;20212;-86
2022/10/29 12:55:24;;;;;;;7.72;2.72;;;;;;;26.88;33.13;96210.97;5092900;28;20195;-84
2022/10/29 12:57:51;;;;;;;11.32;3.33;;;;;;;26.91;34.73;96205.16;5082166;28;20209;-85
2022/10/29 13:00:46;;;;;;;7.95;2.75;;;;;;;26.93;33.98;96208.34;5078516;28;20196;-84
2022/10/29 13:03:12;;;;;;;12.05;3.55;;;;;;;27.00;34.36;96208.09;5082069;28;20244;-84
2022/10/29 13:05:43;;;;;;;8.93;3.30;;;;;;;27.01;33.39;96191.19;5080047;28;20195;-85
2022/10/29 13:08:34;;;;;;;14.52;3.80;;;;;;;27.04;34.50;96193.28;5082435;28;20193;-84
2022/10/29 13:11:01;;;;;;;10.02;2.80;;;;;;;27.07;35.28;96195.41;5076083;28;20201;-85
2022/10/29 13:13:46;;;;;;;11.20;3.45;;;;;;;27.09;34.17;96188.81;5089626;28;20224;-85
2022/10/29 13:16:17;;;;;;;9.23;2.92;;;;;;;27.11;33.07;96191.97;5086835;28;20587;-85
2022/10/29 13:18:56;;;;;;;6.80;2.67;;;;;;;27.17;33.49;96193.53;5079520;28;20203;-86
2022/10/29 13:22:01;;;;;;;9.93;3.33;;;;;;;27.18;33.71;96192.47;5077486;28;20211;-85
2022/10/29 13:24:29;;;;;;;9.13;3.78;;;;;;;27.14;34.04;96191.41;5082023;28;20600;-86
2022/10/29 13:26:58;;;;;;;13.70;3.53;;;;;;;27.16;34.29;96189.31;5080718;28;20185;-85
2022/10/29 13:29:46;;;;;;;8.82;3.53;;;;;;;27.22;35.33;96186.66;5080468;28;20644;-85
2022/10/29 13:32:43;;;;;;;11.07;3.50;;;;;;;27.30;35.10;96179.00;5087292;28;20197;-87
2022/10/29 13:35:41;;;;;;;9.48;3.90;;;;;;;27.32;34.21;96182.16;5030448;28;20601;-87
2022/10/29 13:38:18;;;;;;;6.40;3.22;;;;;;;27.27;35.14;96179.53;5078190;28;20200;-87
2022/10/29 13:41:10;;;;;;;10.85;3.97;;;;;;;27.22;35.23;96179.53;5069325;28;20200;-87
2022/10/29 13:43:37;;;;;;;11.10;3.63;;;;;;;27.25;36.47;96180.84;5076919;28;20221;-87
2022/10/29 13:46:31;;;;;;;14.25;3.45;;;;;;;27.24;35.42;96180.06;5075363;28;20204;-87
2022/10/29 13:49:00;;;;;;;9.23;3.30;;;;;;;27.21;35.58;96177.13;5077765;28;20291;-86
2022/10/29 13:51:38;;;;;;;12.65;3.60;;;;;;;27.15;35.58;96184.28;5076572;28;20204;-87
2022/10/29 13:54:15;;;;;;;12.90;3.55;;;;;;;27.07;36.31;96179.53;5075675;28;20229;-87
2022/10/29 13:56:50;;;;;;;11.52;3.42;;;;;;;26.96;37.19;96178.75;5055182;28;20651;-87
2022/10/29 13:59:25;;;;;;;6.68;2.83;;;;;;;26.85;37.62;96179.78;5055878;28;20185;-87
2022/10/29 14:02:00;;;;;;;11.45;3.33;;;;;;;26.77;38.11;96181.09;5054092;28;20283;-87
2022/10/29 14:04:34;;;;;;;9.27;2.90;;;;;;;26.77;38.14;96177.66;5055399;28;20288;-89
2022/10/29 14:07:06;;;;;;;8.27;3.38;;;;;;;26.71;38.74;96168.16;5054997;28;20206;-87
2022/10/29 14:09:41;;;;;;;9.55;3.33;;;;;;;26.67;39.29;96172.41;5052211;28;20198;-87
2022/10/29 14:12:10;;;;;;;10.77;3.33;;;;;;;26.61;39.83;96176.06;5064073;28;20193;-87
2022/10/29 14:14:46;;;;;;;10.98;3.30;;;;;;;26.48;40.92;96170.25;5076821;28;20224;-87
2022/10/29 14:17:15;;;;;;;8.05;2.83;;;;;;;26.46;41.32;96176.84;5090237;28;20220;-86
2022/10/29 14:19:46;;;;;;;8.93;3.40;;;;;;;26.49;41.73;96178.97;5082360;28;20287;-86
2022/10/29 14:22:32;;;;;;;8.95;3.65;;;;;;;26.49;42.74;96177.13;5082782;28;20683;-86
2022/10/29 14:25:01;;;;;;;8.85;3.67;;;;;;;26.47;42.91;96173.97;5077966;28;20193;-86
2022/10/29 14:27:28;;;;;;;6.78;3.13;;;;;;;26.39;43.53;96171.03;5095141;28;20200;-86
2022/10/29 14:30:14;;;;;;;7.78;2.92;;;;;;;26.30;43.71;96165.50;5094381;28;20207;-85
2022/10/29 14:32:40;;;;;;;11.52;3.28;;;;;;;26.22;44.47;96173.09;5097795;28;20208;-86
2022/10/29 14:35:08;;;;;;;9.40;3.20;;;;;;;26.14;44.80;96164.63;5087172;28;20764;-89
2022/10/29 14:37:38;;;;;;;11.30;3.60;;;;;;;26.11;44.58;96173.06;5076974;28;20688;-87
2022/10/29 14:40:16;;;;;;;12.82;3.90;;;;;;;26.08;45.30;96170.16;5091894;28;20206;-87
2022/10/29 14:42:45;;;;;;;12.05;3.67;;;;;;;25.99;45.27;96182.25;5084332;28;20220;-86
2022/10/29 14:45:18;;;;;;;15.18;3.35;;;;;;;25.93;46.17;96180.66;5098011;28;20215;-87
2022/10/29 14:47:50;;;;;;;12.13;3.55;;;;;;;25.70;46.10;96182.69;5098192;28;20195;-86
2022/10/29 14:50:20;;;;;;;12.15;3.78;;;;;;;25.54;45.96;96177.56;5097558;28;20325;-86
2022/10/29 14:52:51;;;;;;;7.53;3.38;;;;;;;25.51;46.10;96180.72;5098178;28;20223;-86
2022/10/29 14:55:22;;;;;;;11.23;3.33;;;;;;;25.42;46.46;96175.09;5088825;28;20196;-85
2022/10/29 14:58:02;;;;;;;10.55;3.35;;;;;;;25.35;46.85;96177.19;5077409;28;20228;-87
2022/10/29 15:00:31;;;;;;;10.43;3.17;;;;;;;25.29;47.05;96176.38;5076288;28;20374;-86
2022/10/29 15:02:58;;;;;;;7.80;3.30;;;;;;;25.23;47.14;96179.22;5077350;28;20301;-86
2022/10/29 15:05:26;;;;;;;8.63;3.13;;;;;;;25.21;47.78;96179.47;5076855;28;20205;-86
2022/10/29 15:08:04;;;;;;;9.40;3.47;;;;;;;25.23;48.13;96171.31;5077219;28;20212;-86
2022/10/29 15:10:32;;;;;;;7.97;3.03;;;;;;;25.21;48.10;96174.19;5076856;28;20207;-87
2022/10/29 15:13:14;;;;;;;10.73;3.85;;;;;;;25.20;48.72;96179.75;5077061;28;20224;-86
2022/10/29 15:15:52;;;;;;;9.40;3.80;;;;;;;25.07;49.38;96181.75;5076819;28;20205;-86
2022/10/29 15:18:21;;;;;;;10.88;3.72;;;;;;;24.94;49.28;96178.75;5075695;28;20205;-86
2022/10/29 15:20:47;;;;;;;9.30;3.10;;;;;;;24.75;49.61;96175.69;5075057;28;20206;-86
2022/10/29 15:23:22;;;;;;;12.18;3.53;;;;;;;24.62;50.13;96176.13;5073109;28;20220;-86
2022/10/29 15:25:52;;;;;;;8.00;3.20;;;;;;;24.48;49.06;96173.06;5073100;28;20192;-85
2022/10/29 15:28:23;;;;;;;9.23;3.40;;;;;;;24.36;49.48;96164.56;5103347;22;20531;-83
2022/10/29 15:30:50;;;;;;;6.88;3.22;;;;;;;24.23;50.34;96168.34;5110944;28;20555;-81
2022/10/29 15:33:19;;;;;;;8.55;3.67;;;;;;;24.13;50.12;96165.59;5112982;28;20199;-83
2022/10/29 15:35:51;;;;;;;10.45;3.47;;;;;;;24.03;50.68;96165.50;5112349;28;20659;-83
2022/10/29 15:39:06;;;;;;;8.15;3.00;;;;;;;23.89;50.68;96162.44;5112211;28;20250;-82
2022/10/29 15:41:38;;;;;;;10.48;3.17;;;;;;;23.82;50.86;96164.50;5112610;28;20199;-81
2022/10/29 15:44:31;;;;;;;7.55;3.10;;;;;;;23.74;50.67;96164.91;5112416;28;20196;-82
2022/10/29 15:46:59;;;;;;;10.35;3.70;;;;;;;23.68;50.91;96164.03;5112086;28;20202;-81
2022/10/29 15:49:26;;;;;;;7.40;3.13;;;;;;;23.58;51.82;96165.75;5113162;28;20741;-83
2022/10/29 15:51:53;;;;;;;11.68;3.65;;;;;;;23.49;51.21;96164.53;5112732;28;20199;-82
2022/10/29 15:54:19;;;;;;;9.82;3.88;;;;;;;23.43;51.49;96161.06;5113214;28;20199;-83
2022/10/29 15:56:46;;;;;;;14.38;3.70;;;;;;;23.35;51.68;96167.53;5113045;28;20230;-83
2022/10/29 15:59:14;;;;;;;14.43;3.75;;;;;;;23.30;50.88;96164.81;5111163;28;20212;-84
2022/10/29 16:01:41;;;;;;;10.15;3.67;;;;;;;23.23;51.05;96168.69;5093121;28;20207;-82
2022/10/29 16:04:09;;;;;;;9.73;3.88;;;;;;;23.21;50.99;96170.75;5095531;28;20418;-83
2022/10/29 16:06:35;;;;;;;8.30;3.90;;;;;;;23.14;51.31;96170.13;5111323;28;20241;-81
2022/10/29 16:09:02;;;;;;;11.57;4.28;;;;;;;23.08;51.12;96172.69;5111390;28;20241;-83
2022/10/29 16:11:29;;;;;;;8.63;4.40;;;;;;;23.02;51.90;96173.66;5111117;28;20194;-83
2022/10/29 16:13:55;;;;;;;9.32;4.03;;;;;;;22.99;51.50;96174.13;5107902;28;20196;-82
2022/10/29 16:16:23;;;;;;;15.52;4.40;;;;;;;22.91;51.43;96164.00;5111516;28;20196;-82
2022/10/29 16:18:52;;;;;;;9.48;3.95;;;;;;;22.78;51.17;96169.59;5110153;28;20222;-82
2022/10/29 16:21:21;;;;;;;11.43;4.28;;;;;;;22.74;51.77;96174.47;5110184;28;20282;-83
2022/10/29 16:23:48;;;;;;;11.48;4.68;;;;;;;22.67;52.05;96178.31;5111415;28;20202;-82
2022/10/29 16:26:16;;;;;;;18.15;4.72;;;;;;;22.61;52.65;96174.81;5110401;28;20192;-83
2022/10/29 16:28:43;;;;;;;8.77;4.20;;;;;;;22.48;52.75;96175.13;5110971;28;20223;-81
2022/10/29 16:31:19;;;;;;;11.73;4.25;;;;;;;22.40;52.98;96178.09;5108562;28;20191;-80
2022/10/29 16:33:46;;;;;;;12.65;4.35;;;;;;;22.39;52.56;96174.69;5102288;28;20563;-84
2022/10/29 16:36:14;;;;;;;11.55;4.32;;;;;;;22.35;52.92;96170.94;5114169;28;20203;-80
2022/10/29 16:38:40;;;;;;;11.10;4.15;;;;;;;22.26;53.06;96167.13;5103630;28;20219;-82
2022/10/29 16:41:09;;;;;;;8.13;4.13;;;;;;;22.25;52.92;96173.41;5114382;28;20210;-82
2022/10/29 16:43:36;;;;;;;10.02;4.05;;;;;;;22.24;53.40;96171.00;5113913;28;20218;-83
2022/10/29 16:46:02;;;;;;;9.82;4.30;;;;;;;22.16;53.26;96176.63;5113643;28;20195;-83
2022/10/29 16:48:28;;;;;;;15.25;4.78;;;;;;;22.15;53.55;96173.19;5113966;28;20207;-82
2022/10/29 16:50:55;;;;;;;8.57;3.92;;;;;;;22.09;53.59;96168.91;5108639;28;20203;-82
2022/10/29 16:53:23;;;;;;;12.10;4.38;;;;;;;22.02;53.71;96170.84;5113942;28;20206;-82
2022/10/29 16:55:49;;;;;;;10.70;3.78;;;;;;;21.96;53.55;96159.44;5113540;28;20202;-83
2022/10/29 16:58:17;;;;;;;7.15;3.53;;;;;;;21.91;53.49;96159.38;5113968;28;20226;-83
2022/10/29 17:00:44;;;;;;;13.95;4.15;;;;;;;21.87;53.37;96166.09;5113278;28;20199;-81
2022/10/29 17:03:12;;;;;;;12.98;4.13;;;;;;;21.81;53.97;96160.97;5113546;28;20202;-82
2022/10/29 17:05:41;;;;;;;8.65;3.83;;;;;;;21.80;53.55;96167.25;5114646;28;20202;-82
2022/10/29 17:08:08;;;;;;;9.52;3.72;;;;;;;21.72;53.78;96165.81;5110962;28;20203;-81
2022/10/29 17:10:36;;;;;;;10.75;4.05;;;;;;;21.65;53.69;96178.22;5109711;28;20202;-82
2022/10/29 17:13:03;;;;;;;9.20;3.95;;;;;;;21.60;54.28;96171.06;5113525;28;20188;-79
2022/10/29 17:15:30;;;;;;;12.10;4.25;;;;;;;21.63;53.75;96175.84;5113497;28;20198;-81
2022/10/29 17:17:57;;;;;;;9.05;4.00;;;;;;;21.61;53.83;96174.47;5105725;28;20207;-82
2022/10/29 17:20:23;;;;;;;10.20;4.43;;;;;;;21.58;54.10;96174.94;5099565;28;20206;-82
2022/10/29 17:22:49;;;;;;;11.88;4.13;;;;;;;21.58;53.62;96174.94;5102849;28;20192;-82
2022/10/29 17:25:16;;;;;;;9.77;4.22;;;;;;;21.57;53.92;96175.97;5103807;28;20191;-81
2022/10/29 17:27:44;;;;;;;5.97;3.72;;;;;;;21.52;54.00;96181.13;5102351;28;20195;-82
2022/10/29 17:30:11;;;;;;;11.38;4.00;;;;;;;21.48;54.17;96175.53;5103266;28;20219;-81
2022/10/29 17:32:37;;;;;;;9.15;4.18;;;;;;;21.45;54.31;96180.44;5104040;28;20211;-81
2022/10/29 17:35:04;;;;;;;8.90;3.67;;;;;;;21.41;54.36;96177.47;5101999;28;20192;-82
2022/10/29 17:37:31;;;;;;;10.15;3.97;;;;;;;21.35;54.97;96181.03;5104065;28;20215;-81
2022/10/29 17:39:58;;;;;;;9.32;4.50;;;;;;;21.35;54.84;96179.19;5103018;28;20216;-80
2022/10/29 17:42:25;;;;;;;11.50;4.28;;;;;;;21.32;55.01;96177.03;5104197;28;20204;-82
2022/10/29 17:44:53;;;;;;;7.75;3.70;;;;;;;21.35;55.34;96181.81;5103202;28;20220;-82
2022/10/29 17:47:20;;;;;;;11.05;4.30;;;;;;;21.37;55.00;96190.22;5103123;28;20192;-81
2022/10/29 17:49:47;;;;;;;9.00;4.57;;;;;;;21.33;55.43;96181.25;5105169;28;20211;-82
2022/10/29 17:52:13;;;;;;;8.82;3.97;;;;;;;21.31;55.34;96191.16;5103437;28;20215;-81
2022/10/29 17:54:39;;;;;;;11.38;3.85;;;;;;;21.26;55.81;96193.66;5103415;28;20672;-82
2022/10/29 17:57:06;;;;;;;9.82;4.07;;;;;;;21.19;56.17;96189.53;5105386;28;20593;-82
2022/10/29 17:59:32;;;;;;;9.93;4.53;;;;;;;21.13;56.14;96187.81;5103869;28;20280;-82
2022/10/29 18:02:00;;;;;;;11.20;3.95;;;;;;;21.01;56.87;96193.84;5103821;28;20203;-82
2022/10/29 18:04:27;;;;;;;11.15;4.20;;;;;;;20.92;56.97;96189.97;5105948;28;20196;-81
2022/10/29 18:06:55;;;;;;;12.93;4.95;;;;;;;20.95;56.92;96186.91;5103345;28;20188;-82
2022/10/29 18:09:22;;;;;;;8.95;4.45;;;;;;;20.89;56.99;96190.44;5112291;28;20272;-81
2022/10/29 18:11:49;;;;;;;6.93;3.85;;;;;;;20.84;57.04;96190.31;5110993;28;20206;-81
2022/10/29 18:14:16;;;;;;;10.00;4.97;;;;;;;20.79;57.57;96187.56;5110266;28;20200;-80
2022/10/29 18:16:42;;;;;;;8.13;4.30;;;;;;;20.79;57.46;96186.75;5103282;28;20210;-80
2022/10/29 18:19:10;;;;;;;8.55;4.40;;;;;;;20.75;57.82;96189.06;5103680;28;20223;-82
2022/10/29 18:21:37;;;;;;;10.40;4.90;;;;;;;20.69;58.06;96188.13;5109545;28;20188;-81
2022/10/29 18:24:03;;;;;;;9.90;4.55;;;;;;;20.64;58.21;96187.19;5109227;28;20570;-82
2022/10/29 18:26:31;;;;;;;8.73;4.30;;;;;;;20.65;58.22;96188.78;5106224;28;20218;-81
2022/10/29 18:29:01;;;;;;;14.93;4.43;;;;;;;20.64;58.35;96187.19;5111639;28;20393;-81
2022/10/29 18:31:30;;;;;;;12.50;4.50;;;;;;;20.61;58.64;96188.44;5111507;28;20195;-82
2022/10/29 18:33:57;;;;;;;7.63;4.05;;;;;;;20.61;58.76;96180.59;5110964;28;20194;-81
2022/10/29 18:36:25;;;;;;;14.75;5.13;;;;;;;20.61;58.60;96179.78;5111430;28;20198;-80
2022/10/29 18:38:52;;;;;;;13.38;4.60;;;;;;;20.66;58.30;96175.47;5111956;28;20230;-81
2022/10/29 18:41:19;;;;;;;8.18;4.57;;;;;;;20.64;58.72;96177.53;5111357;28;20218;-82
2022/10/29 18:43:46;;;;;;;11.63;4.22;;;;;;;20.69;58.41;96172.41;5111700;28;20192;-82
2022/10/29 18:46:13;;;;;;;14.13;4.32;;;;;;;20.66;58.77;96174.69;5107820;28;20196;-81
2022/10/29 18:48:41;;;;;;;10.90;4.05;;;;;;;20.68;58.75;96177.88;5108353;28;20215;-81
2022/10/29 18:51:09;;;;;;;10.57;4.47;;;;;;;20.70;58.74;96178.44;5111103;28;20206;-82
2022/10/29 18:53:38;;;;;;;10.18;4.55;;;;;;;20.66;59.03;96170.25;5111090;28;20667;-82
2022/10/29 18:56:09;;;;;;;10.18;4.25;;;;;;;20.64;59.30;96164.44;5110829;28;20203;-81
2022/10/29 18:58:36;;;;;;;9.45;4.20;;;;;;;20.62;59.16;96166.47;5107681;28;20223;-82
2022/10/29 19:01:07;;;;;;;9.35;4.38;;;;;;;20.60;59.45;96165.09;5111691;28;20198;-82
2022/10/29 19:03:34;;;;;;;7.93;4.43;;;;;;;20.63;59.44;96167.28;5111232;28;20191;-81
2022/10/29 19:06:01;;;;;;;12.18;4.30;;;;;;;20.68;59.14;96168.19;5111974;28;20214;-82
2022/10/29 19:08:28;;;;;;;12.90;4.65;;;;;;;20.66;59.30;96174.69;5111159;28;20208;-82
2022/10/29 19:10:56;;;;;;;11.27;4.88;;;;;;;20.61;59.43;96162.25;5113468;28;20199;-83
2022/10/29 19:13:23;;;;;;;15.43;5.05;;;;;;;20.57;59.78;96168.19;5111423;28;20195;-82
2022/10/29 19:15:50;;;;;;;9.95;5.15;;;;;;;20.54;60.07;96168.63;5106011;28;20231;-83
2022/10/29 19:18:16;;;;;;;10.60;5.00;;;;;;;20.51;59.81;96174.31;5108143;28;20237;-81
2022/10/29 19:20:43;;;;;;;7.47;4.72;;;;;;;20.49;59.89;96165.88;5108629;28;20195;-83
2022/10/29 19:23:09;;;;;;;12.07;5.10;;;;;;;20.50;59.82;96170.91;5101139;28;20192;-82
2022/10/29 19:25:39;;;;;;;9.60;4.65;;;;;;;20.48;60.33;96159.84;5102389;28;20278;-81
2022/10/29 19:28:07;;;;;;;12.40;5.03;;;;;;;20.48;60.14;96161.69;5101391;28;20617;-81
2022/10/29 19:30:34;;;;;;;10.68;4.90;;;;;;;20.42;60.39;96152.91;5100370;28;20218;-82
2022/10/29 19:33:00;;;;;;;12.70;4.80;;;;;;;20.36;60.61;96159.00;5102406;28;20195;-82
2022/10/29 19:35:26;;;;;;;9.88;5.45;;;;;;;20.32;60.83;96157.84;5100355;28;20202;-81
2022/10/29 19:37:53;;;;;;;14.02;5.28;;;;;;;20.32;61.04;96152.63;5102464;28;20226;-82
2022/10/29 19:40:19;;;;;;;10.45;5.40;;;;;;;20.28;61.39;96152.28;5100606;28;20192;-81
2022/10/29 19:42:47;;;;;;;9.98;4.65;;;;;;;20.27;61.41;96155.09;5101196;28;20192;-83
2022/10/29 19:45:15;;;;;;;13.07;5.10;;;;;;;20.24;61.54;96152.94;5102068;28;20191;-81
2022/10/29 19:47:41;;;;;;;13.10;4.90;;;;;;;20.18;61.97;96153.84;5099194;28;20199;-83
2022/10/29 19:50:09;;;;;;;10.95;4.47;;;;;;;20.15;61.89;96155.09;5100709;28;20222;-81
2022/10/29 19:52:35;;;;;;;11.02;4.80;;;;;;;20.13;61.95;96157.13;5102120;28;20191;-81
2022/10/29 19:55:02;;;;;;;8.30;4.18;;;;;;;20.11;62.11;96147.91;5102703;28;20563;-81
2022/10/29 19:57:28;;;;;;;13.38;5.15;;;;;;;20.07;62.13;96151.97;5100429;28;20198;-81
2022/10/29 19:59:54;;;;;;;11.45;4.55;;;;;;;19.99;62.50;96153.09;5101864;28;20211;-82
2022/10/29 20:02:23;;;;;;;12.13;4.65;;;;;;;19.93;62.74;96152.16;5099873;28;20348;-82
2022/10/29 20:04:49;;;;;;;9.50;4.53;;;;;;;19.88;63.42;96154.63;5099980;28;20681;-82
2022/10/29 20:07:16;;;;;;;12.13;4.97;;;;;;;19.90;62.57;96152.59;5102959;28;20191;-81
2022/10/29 20:09:42;;;;;;;6.90;4.18;;;;;;;19.93;62.02;96149.53;5104675;28;20227;-82
2022/10/29 20:12:09;;;;;;;9.23;4.45;;;;;;;20.00;61.47;96149.47;5105963;28;20225;-83
2022/10/29 20:14:35;;;;;;;10.55;4.72;;;;;;;20.05;61.15;96151.38;5099580;28;20199;-81
2022/10/29 20:17:02;;;;;;;11.48;4.00;;;;;;;20.05;60.78;96148.78;5094726;28;20199;-82
2022/10/29 20:19:30;;;;;;;8.85;4.35;;;;;;;20.06;60.65;96150.38;5095032;28;20316;-82
2022/10/29 20:21:56;;;;;;;8.68;3.88;;;;;;;20.06;60.37;96152.97;5037891;28;20227;-82
2022/10/29 20:24:23;;;;;;;9.75;4.20;;;;;;;20.07;60.21;96149.34;5074428;28;20200;-82
2022/10/29 20:26:49;;;;;;;15.63;4.55;;;;;;;20.04;59.88;96153.19;5074236;28;20197;-81
2022/10/29 20:29:16;;;;;;;10.70;4.63;;;;;;;20.07;59.96;96146.72;5073766;28;20221;-81
2022/10/29 20:31:42;;;;;;;11.43;4.50;;;;;;;20.08;59.71;96145.72;5073431;28;20392;-82
2022/10/29 20:34:09;;;;;;;9.60;4.68;;;;;;;20.07;59.68;96147.53;5074473;28;20201;-80
2022/10/29 20:36:37;;;;;;;9.82;4.28;;;;;;;20.09;59.57;96148.13;5073769;28;20205;-82
2022/10/29 20:39:04;;;;;;;11.27;4.47;;;;;;;20.10;59.51;96135.84;5073679;28;20224;-81
2022/10/29 20:41:31;;;;;;;12.43;4.45;;;;;;;20.07;59.76;96139.69;5073580;28;20299;-81
2022/10/29 20:43:58;;;;;;;8.90;4.40;;;;;;;20.06;59.29;96142.53;5073831;28;20193;-80
2022/10/29 20:46:26;;;;;;;9.63;4.45;;;;;;;20.02;59.55;96150.00;5072360;28;20207;-82
2022/10/29 20:48:53;;;;;;;11.18;5.03;;;;;;;19.97;60.09;96140.25;5073063;28;20223;-82
2022/10/29 20:51:21;;;;;;;9.75;4.40;;;;;;;19.95;60.22;96139.66;5072728;28;20201;-82
2022/10/29 20:53:49;;;;;;;11.18;5.20;;;;;;;19.91;59.87;96141.13;5071836;28;20198;-81
2022/10/29 20:56:16;;;;;;;10.23;5.45;;;;;;;19.86;60.64;96145.41;5072991;28;20193;-80
2022/10/29 20:58:42;;;;;;;10.63;5.80;;;;;;;19.80;61.07;96144.47;5072459;28;20213;-82
2022/10/29 21:01:10;;;;;;;12.30;5.50;;;;;;;19.71;61.39;96145.00;5072626;28;20713;-82
2022/10/29 21:03:37;;;;;;;11.23;5.30;;;;;;;19.62;61.92;96144.50;5072718;28;20731;-82
2022/10/29 21:06:05;;;;;;;12.05;5.25;;;;;;;19.59;62.09;96152.78;5072639;28;20572;-82
2022/10/29 21:08:32;;;;;;;9.85;4.97;;;;;;;19.54;62.00;96145.59;5072778;28;20228;-82
2022/10/29 21:11:00;;;;;;;12.05;5.30;;;;;;;19.48;62.22;96146.44;5072975;28;20208;-81
2022/10/29 21:13:27;;;;;;;9.40;4.78;;;;;;;19.41;62.55;96143.09;5072946;28;20200;-82
2022/10/29 21:15:54;;;;;;;8.60;5.13;;;;;;;19.36;62.65;96150.78;5071470;28;20204;-81
2022/10/29 21:18:21;;;;;;;10.57;5.00;;;;;;;19.30;62.86;96146.41;5069238;28;20221;-82
2022/10/29 21:20:47;;;;;;;10.63;5.38;;;;;;;19.16;63.14;96151.00;5072939;28;20189;-82
2022/10/29 21:23:14;;;;;;;13.15;5.60;;;;;;;19.16;63.33;96143.16;5072322;28;20197;-81
2022/10/29 21:25:40;;;;;;;11.57;5.20;;;;;;;19.13;63.41;96140.19;5072349;28;20196;-81
2022/10/29 21:28:08;;;;;;;8.50;4.97;;;;;;;19.05;64.13;96138.63;5072460;28;20694;-82
2022/10/29 21:30:36;;;;;;;15.82;5.22;;;;;;;18.97;63.72;96141.53;5093251;22;20231;-86
2022/10/29 21:33:02;;;;;;;10.68;5.55;;;;;;;18.97;63.96;96137.13;5072920;28;20199;-85
2022/10/29 21:35:28;;;;;;;10.07;5.15;;;;;;;18.94;64.13;96147.19;5073448;28;20553;-85
2022/10/29 21:37:55;;;;;;;9.48;5.65;;;;;;;18.79;65.41;96144.09;5073015;28;20594;-84
2022/10/29 21:40:21;;;;;;;11.45;5.75;;;;;;;18.71;65.67;96141.75;5059643;28;20221;-85
2022/10/29 21:42:48;;;;;;;10.95;4.85;;;;;;;18.77;64.79;96148.75;5053236;28;20208;-85
2022/10/29 21:45:16;;;;;;;10.35;5.38;;;;;;;18.78;65.09;96148.53;5053195;28;20224;-85
2022/10/29 21:47:42;;;;;;;10.63;5.10;;;;;;;18.81;64.81;96145.50;5051085;28;20209;-83
2022/10/29 21:50:09;;;;;;;11.35;5.70;;;;;;;18.82;64.93;96148.91;5053461;28;20213;-85
2022/10/29 21:52:36;;;;;;;10.88;5.68;;;;;;;18.75;65.17;96141.13;5052811;28;20669;-85
2022/10/29 21:55:02;;;;;;;9.05;5.57;;;;;;;18.69;65.71;96136.75;5053581;28;20712;-85
2022/10/29 21:57:31;;;;;;;10.80;6.03;;;;;;;18.68;65.72;96137.75;5053343;28;20200;-86
2022/10/29 21:59:58;;;;;;;11.82;5.10;;;;;;;18.68;65.67;96142.19;5053521;28;20229;-87
2022/10/29 22:02:26;;;;;;;11.80;5.80;;;;;;;18.55;66.01;96137.84;5053048;28;20197;-86
2022/10/29 22:04:52;;;;;;;11.13;4.63;;;;;;;18.49;66.45;96141.28;5052491;28;20194;-85
2022/10/29 22:07:19;;;;;;;8.88;5.00;;;;;;;18.42;66.36;96137.94;5053517;28;20198;-86
2022/10/29 22:09:45;;;;;;;9.60;5.30;;;;;;;18.37;66.74;96135.97;5052708;28;20217;-86
2022/10/29 22:12:11;;;;;;;12.25;5.15;;;;;;;18.36;66.76;96138.78;5053142;28;20225;-87
2022/10/29 22:14:38;;;;;;;8.25;5.05;;;;;;;18.30;66.71;96135.22;5052537;28;20204;-85
2022/10/29 22:17:04;;;;;;;11.80;5.35;;;;;;;18.24;67.20;96134.25;5053085;28;20209;-85
2022/10/29 22:19:32;;;;;;;9.15;5.72;;;;;;;18.19;67.27;96133.28;5052442;28;20221;-85
2022/10/29 22:21:59;;;;;;;8.43;5.13;;;;;;;18.20;67.24;96129.69;5052342;28;20204;-86
2022/10/29 22:24:25;;;;;;;15.55;5.43;;;;;;;18.16;67.52;96139.72;5051879;28;20197;-85
2022/10/29 22:26:51;;;;;;;12.35;5.70;;;;;;;18.12;67.89;96133.31;5052287;28;20197;-85
2022/10/29 22:29:18;;;;;;;10.77;5.90;;;;;;;18.01;68.34;96131.38;5051307;28;20819;-85
2022/10/29 22:31:44;;;;;;;10.93;5.82;;;;;;;18.00;68.36;96129.78;5051910;28;20193;-87
2022/10/29 22:34:11;;;;;;;9.15;5.40;;;;;;;17.78;69.55;96128.50;5052546;28;20205;-86
2022/10/29 22:36:39;;;;;;;14.15;5.78;;;;;;;17.61;69.95;96128.16;5052140;28;20202;-85
2022/10/29 22:39:05;;;;;;;12.65;5.70;;;;;;;17.60;70.54;96129.94;5051872;28;21005;-85
2022/10/29 22:41:32;;;;;;;9.38;5.53;;;;;;;17.40;71.27;96118.81;5052184;28;20584;-85
2022/10/29 22:43:58;;;;;;;12.70;5.63;;;;;;;17.33;71.39;96118.03;5051922;28;20205;-85
2022/10/29 22:46:26;;;;;;;12.75;6.00;;;;;;;17.46;70.71;96117.19;5050957;28;20220;-85
2022/10/29 22:48:52;;;;;;;12.95;5.78;;;;;;;17.33;71.31;96122.44;5051920;28;20198;-85
2022/10/29 22:51:21;;;;;;;12.07;5.95;;;;;;;17.27;70.91;96109.25;5051633;28;20696;-84
2022/10/29 22:53:50;;;;;;;10.88;5.32;;;;;;;17.33;71.07;96117.22;5051640;28;20197;-85
2022/10/29 22:56:18;;;;;;;11.52;5.63;;;;;;;17.36;70.77;96116.81;5051911;28;20205;-85
2022/10/29 22:58:44;;;;;;;9.70;4.97;;;;;;;17.37;70.70;96110.59;5051418;28;20236;-85
2022/10/29 23:01:13;;;;;;;9.15;5.45;;;;;;;17.46;70.37;96112.78;5051303;28;20656;-85
2022/10/29 23:03:41;;;;;;;10.13;5.60;;;;;;;17.38;70.42;96104.41;5051511;28;20205;-85
2022/10/29 23:06:10;;;;;;;9.27;5.38;;;;;;;17.45;70.14;96113.78;5051631;28;20208;-85
2022/10/29 23:08:37;;;;;;;11.52;5.60;;;;;;;17.46;70.18;96112.78;5051644;28;20197;-84
2022/10/29 23:11:06;;;;;;;9.90;5.10;;;;;;;17.49;70.16;96108.97;5051131;28;20213;-85
2022/10/29 23:13:33;;;;;;;9.10;5.03;;;;;;;17.47;70.11;96109.19;5051660;28;20208;-85
2022/10/29 23:16:00;;;;;;;9.13;4.90;;;;;;;17.48;70.05;96113.38;5051910;28;20193;-85
2022/10/29 23:18:26;;;;;;;8.43;5.25;;;;;;;17.45;70.12;96107.78;5052017;28;20665;-86
2022/10/29 23:21:03;;;;;;;10.68;5.18;;;;;;;17.51;69.89;96112.19;5051729;28;20213;-85
2022/10/29 23:23:31;;;;;;;8.02;4.93;;;;;;;17.51;69.82;96109.56;5051749;28;20208;-85
2022/10/29 23:26:01;;;;;;;11.85;5.35;;;;;;;17.49;70.22;96108.97;5051569;28;20197;-85
2022/10/29 23:28:30;;;;;;;9.93;5.53;;;;;;;17.56;69.71;96104.53;5051966;28;20205;-85